QTR706 KJFK-OTHH
Flight info
| Callsign | QTR706 |
|---|---|
| Flight time | N/A |
| Altitude | 33000 |
| Route | GREKI DCT JUDDS DCT CAM DCT TOPPS DCT ALLRY/M085F330 DCT 51N050W 53N040W 55N030W 55N020W DCT RESNO/N0488F330 DCT NETKI DCT NIBOG DCT BELOX/N0486F350 L603 DOLAS DCT NAVPI DCT GISEB DCT TIVUN/N0484F370 DCT ESAMA DCT OSBIT DCT BARSU DCT DEXIT DCT PESAT DCT TEKNO DCT RONBU P975 ARTAT UP975 EZS UG8 TAMER/N0495F390 UG8 OTKEP UM688 RATVO M688 KEDIM DCT SISIN M688 SIDAD P975 LONOS L703 HAYYA |
| Aircraft | A35K/H-SDE2E3GHIJ3J4J5LM1ORWXY/LB1D1 |
Departure
| Time | 2026-05-05 05:28 |
|---|---|
| Airport | John F. Kennedy International Airport (KJFK) |
Arrival
| Time | N/A |
|---|---|
| Airport | Hamad International Airport (OTHH) |
| Time | Latitude | Longitude | Altitude | Speed | Heading |
|---|---|---|---|---|---|
| 2026-05-05 05:14 | 40.64079 | -73.78109 | 21 ft | 0 kts | 240° |
| 2026-05-05 05:19 | 40.64089 | -73.78087 | 22 ft | 4 kts | 240° |
| 2026-05-05 05:19 | 40.64100 | -73.78060 | 26 ft | 4 kts | 233° |
| 2026-05-05 05:19 | 40.64114 | -73.78041 | 26 ft | 4 kts | 199° |
| 2026-05-05 05:20 | 40.64130 | -73.78038 | 27 ft | 4 kts | 159° |
| 2026-05-05 05:20 | 40.64154 | -73.78053 | 24 ft | 4 kts | 148° |
| 2026-05-05 05:20 | 40.64165 | -73.78062 | 24 ft | 5 kts | 151° |
| 2026-05-05 05:22 | 40.64160 | -73.78059 | 24 ft | 2 kts | 151° |
| 2026-05-05 05:22 | 40.64132 | -73.78040 | 27 ft | 7 kts | 155° |
| 2026-05-05 05:22 | 40.64078 | -73.78012 | 23 ft | 10 kts | 161° |
| 2026-05-05 05:23 | 40.64014 | -73.77948 | 21 ft | 13 kts | 127° |
| 2026-05-05 05:23 | 40.63944 | -73.77917 | 21 ft | 12 kts | 175° |
| 2026-05-05 05:23 | 40.63836 | -73.77920 | 21 ft | 20 kts | 175° |
| 2026-05-05 05:23 | 40.63710 | -73.77907 | 21 ft | 17 kts | 175° |
| 2026-05-05 05:24 | 40.63595 | -73.77890 | 22 ft | 14 kts | 163° |
| 2026-05-05 05:24 | 40.63536 | -73.77809 | 22 ft | 12 kts | 130° |
| 2026-05-05 05:24 | 40.63473 | -73.77743 | 22 ft | 14 kts | 169° |
| 2026-05-05 05:24 | 40.63379 | -73.77811 | 28 ft | 15 kts | 209° |
| 2026-05-05 05:25 | 40.63309 | -73.77797 | 27 ft | 10 kts | 148° |
| 2026-05-05 05:25 | 40.63254 | -73.77712 | 27 ft | 15 kts | 118° |
| 2026-05-05 05:25 | 40.63186 | -73.77551 | 24 ft | 25 kts | 119° |
| 2026-05-05 05:25 | 40.63097 | -73.77338 | 22 ft | 26 kts | 119° |
| 2026-05-05 05:26 | 40.63012 | -73.77144 | 22 ft | 21 kts | 121° |
| 2026-05-05 05:26 | 40.62905 | -73.77102 | 22 ft | 17 kts | 204° |
| 2026-05-05 05:26 | 40.62817 | -73.77187 | 22 ft | 11 kts | 237° |
| 2026-05-05 05:26 | 40.62834 | -73.77265 | 22 ft | 9 kts | 302° |
| 2026-05-05 05:27 | 40.62895 | -73.77393 | 22 ft | 37 kts | 302° |
| 2026-05-05 05:27 | 40.63149 | -73.77973 | 26 ft | 109 kts | 300° |
| 2026-05-05 05:27 | 40.64366 | -73.80634 | 284 ft | 208 kts | 298° |
| 2026-05-05 05:28 | 40.64925 | -73.82352 | 1143 ft | 201 kts | 270° |
| 2026-05-05 05:28 | 40.64864 | -73.84230 | 1913 ft | 215 kts | 264° |
| 2026-05-05 05:28 | 40.66450 | -73.87277 | 3396 ft | 263 kts | 330° |
| 2026-05-05 05:28 | 40.72980 | -73.82834 | 7324 ft | 296 kts | 48° |
| 2026-05-05 05:29 | 40.78711 | -73.74727 | 10508 ft | 311 kts | 40° |
| 2026-05-05 05:29 | 40.85836 | -73.66305 | 11736 ft | 382 kts | 39° |
| 2026-05-05 05:29 | 40.94253 | -73.56296 | 13988 ft | 420 kts | 40° |
| 2026-05-05 05:29 | 41.03167 | -73.45614 | 16600 ft | 438 kts | 40° |
| 2026-05-05 05:30 | 41.12299 | -73.34645 | 18961 ft | 453 kts | 40° |
| 2026-05-05 05:30 | 41.21811 | -73.23172 | 21182 ft | 463 kts | 39° |
| 2026-05-05 05:30 | 41.31482 | -73.11460 | 23207 ft | 474 kts | 39° |
| 2026-05-05 05:30 | 41.41266 | -72.99560 | 24791 ft | 485 kts | 39° |
| 2026-05-05 05:31 | 41.51276 | -72.87334 | 26300 ft | 494 kts | 39° |
| 2026-05-05 05:31 | 41.61550 | -72.74728 | 27706 ft | 503 kts | 39° |
| 2026-05-05 05:31 | 41.71879 | -72.61996 | 29065 ft | 509 kts | 39° |
| 2026-05-05 05:31 | 41.82178 | -72.49238 | 30751 ft | 502 kts | 39° |
| 2026-05-05 05:32 | 41.92408 | -72.36509 | 32305 ft | 493 kts | 39° |
| 2026-05-05 05:32 | 42.02331 | -72.24112 | 33611 ft | 486 kts | 38° |
| 2026-05-05 05:32 | 42.12177 | -72.11758 | 34360 ft | 486 kts | 38° |
| 2026-05-05 05:32 | 42.22129 | -71.99215 | 34915 ft | 489 kts | 38° |
| 2026-05-05 05:33 | 42.31965 | -71.86751 | 35742 ft | 483 kts | 38° |
| 2026-05-05 05:33 | 42.41625 | -71.74454 | 36794 ft | 468 kts | 38° |
| 2026-05-05 05:33 | 42.50904 | -71.62596 | 37592 ft | 453 kts | 38° |
| 2026-05-05 05:33 | 42.60135 | -71.50766 | 37621 ft | 453 kts | 38° |
| 2026-05-05 05:34 | 42.78316 | -71.27287 | 37654 ft | 453 kts | 38° |
| 2026-05-05 05:34 | 42.96711 | -71.03333 | 37491 ft | 460 kts | 38° |
| 2026-05-05 05:35 | 43.15293 | -70.78916 | 37512 ft | 466 kts | 38° |
| 2026-05-05 05:35 | 43.24599 | -70.66603 | 37652 ft | 467 kts | 38° |
| 2026-05-05 05:35 | 43.33965 | -70.54157 | 37829 ft | 465 kts | 38° |
| 2026-05-05 05:36 | 43.52537 | -70.29315 | 37824 ft | 468 kts | 39° |
| 2026-05-05 05:36 | 43.71272 | -70.04025 | 37847 ft | 473 kts | 39° |
| 2026-05-05 05:37 | 43.90197 | -69.78239 | 37873 ft | 480 kts | 39° |
| 2026-05-05 05:37 | 44.09372 | -69.51860 | 37868 ft | 489 kts | 40° |
| 2026-05-05 05:38 | 44.28775 | -69.24908 | 37852 ft | 499 kts | 40° |
| 2026-05-05 05:38 | 44.48572 | -68.97132 | 37837 ft | 509 kts | 40° |
| 2026-05-05 05:39 | 44.68647 | -68.68675 | 37840 ft | 516 kts | 41° |
| 2026-05-05 05:39 | 44.88838 | -68.39745 | 37869 ft | 520 kts | 41° |
| 2026-05-05 05:40 | 45.09051 | -68.10479 | 37872 ft | 521 kts | 41° |
| 2026-05-05 05:40 | 45.29209 | -67.80975 | 37867 ft | 522 kts | 41° |
| 2026-05-05 05:41 | 45.38174 | -67.64476 | 37863 ft | 529 kts | 54° |
| 2026-05-05 05:41 | 45.45805 | -67.46736 | 37856 ft | 530 kts | 55° |
| 2026-05-05 05:41 | 45.61149 | -67.10893 | 37851 ft | 530 kts | 55° |